METAR Formatted Surface Weather Observation
Issued by NWS

Current Version | Previous Version | Text Only | Print | Product List | Glossary On
Versions: 1 2 3 4 5 6 7 8 9 10 11 12 13 14 15 16 17 18 19 20 21 22 23 24 25 26 27 28 29
000
SAUS44 KFWD 282357 COR
MTRNFW
METAR KNFW 282352Z AUTO 09010KT 10SM CLR 31/18 A2997 RMK AO2 PK WND
09028/2321 SLP131 T03110178 10333 20311 55007 $



USA.gov is the U.S. government's official web portal to all federal, state and local government web resources and services.